Terminal Aerodrome Forecast
Issued by NWS Pocatello, ID

Home | Current Version | Previous Version | Text Only | Print | Product List | Glossary On
Versions: 1 2 3 4 5 6 7 8 9 10 11 12 13
000
FTUS45 KPIH 031127
TAFPIH
TAF
KPIH 031127Z 0312/0412 18015G25KT P6SM SCT120 BKN140 BKN180
     FM031500 23010KT P6SM FEW080 BKN120 BKN180
     FM032000 24015G25KT P6SM -SHRA VCTS SCT080CB BKN100 OVC140
     FM040000 24020G30KT P6SM -SHRA VCTS SCT060CB BKN100 OVC140
     FM040300 21015KT P6SM VCSH SCT060 BKN090 OVC140=

USA.gov is the U.S. government's official web portal to all federal, state and local government web resources and services.